createdAt,value
2023-01-10T00:01:48.214Z,69.68
2023-01-10T00:04:15.563Z,67.44
2023-01-10T00:06:42.939Z,64.17
2023-01-10T00:09:11.275Z,67.45
2023-01-10T00:11:58.777Z,66.85
2023-01-10T00:14:29.958Z,67.29
2023-01-10T00:16:57.530Z,64.28
2023-01-10T00:19:25.167Z,68.89
2023-01-10T00:21:53.462Z,67.82
2023-01-10T00:24:21.788Z,70.07
2023-01-10T00:26:53.771Z,68.81
2023-01-10T00:29:29.280Z,65.69
2023-01-10T00:31:57.232Z,65.66
2023-01-10T00:34:24.603Z,67.73
2023-01-10T00:36:51.875Z,66.50
2023-01-10T00:39:20.953Z,64.50
2023-01-10T00:42:07.064Z,65.51
2023-01-10T00:44:34.498Z,66.48
2023-01-10T00:47:01.912Z,65.29
2023-01-10T00:49:29.219Z,64.29
2023-01-10T00:51:58.370Z,65.39
2023-01-10T00:54:26.142Z,66.22
2023-01-10T00:56:53.437Z,65.94
2023-01-10T00:59:20.792Z,65.62
2023-01-10T01:01:48.200Z,65.05
2023-01-10T01:04:15.576Z,68.12
2023-01-10T01:06:47.568Z,65.20
2023-01-10T01:09:15.337Z,66.33
2023-01-10T01:11:42.908Z,67.72
2023-01-10T01:14:10.221Z,67.37
2023-01-10T01:16:37.546Z,66.66
2023-01-10T01:19:04.808Z,66.84
2023-01-10T01:21:32.114Z,64.13
2023-01-10T01:23:59.381Z,67.81
2023-01-10T01:26:28.174Z,68.90
2023-01-10T01:28:55.551Z,67.66
2023-01-10T01:31:23.000Z,65.89
2023-01-10T01:33:51.629Z,69.37
2023-01-10T01:36:20.140Z,67.77
2023-01-10T01:38:47.422Z,67.28
2023-01-10T01:41:33.130Z,65.99
2023-01-10T01:44:20.664Z,67.05
2023-01-10T01:47:07.299Z,65.54
2023-01-10T01:49:39.064Z,69.33
2023-01-10T01:52:11.366Z,67.38
2023-01-10T01:54:38.624Z,69.20
2023-01-10T01:57:11.371Z,68.16
2023-01-10T01:59:41.863Z,67.58
2023-01-10T02:02:19.910Z,65.61
2023-01-10T02:04:54.401Z,67.33
2023-01-10T02:07:22.776Z,66.87
2023-01-10T02:09:59.798Z,64.61
2023-01-10T02:12:29.173Z,69.12
2023-01-10T02:14:57.265Z,68.32
2023-01-10T02:17:24.565Z,68.56
2023-01-10T02:19:58.770Z,67.25
2023-01-10T02:22:50.899Z,68.67
2023-01-10T02:25:36.395Z,68.13
2023-01-10T02:28:28.533Z,67.75
2023-01-10T02:31:37.117Z,67.99
2023-01-10T02:34:10.476Z,68.12
2023-01-10T02:36:54.378Z,67.81
2023-01-10T02:39:32.874Z,69.39
2023-01-10T02:42:07.144Z,68.76
2023-01-10T02:44:39.839Z,71.58
2023-01-10T02:47:08.251Z,70.92
2023-01-10T02:49:42.806Z,70.24
2023-01-10T02:52:11.810Z,69.90
2023-01-10T02:54:39.085Z,69.00
2023-01-10T02:57:18.768Z,70.20
2023-01-10T03:00:09.795Z,68.77
2023-01-10T03:02:43.153Z,69.34
2023-01-10T03:05:13.203Z,69.72
2023-01-10T03:07:44.113Z,68.27
2023-01-10T03:10:19.631Z,68.57
2023-01-10T03:12:55.287Z,70.27
2023-01-10T03:15:24.626Z,68.16
2023-01-10T03:17:56.153Z,70.08
2023-01-10T03:20:23.945Z,69.72
2023-01-10T03:22:53.181Z,68.99
2023-01-10T03:25:24.389Z,67.52
2023-01-10T03:28:13.088Z,69.79
2023-01-10T03:30:47.900Z,69.50
2023-01-10T03:33:18.148Z,69.45
2023-01-10T03:36:03.808Z,67.85
2023-01-10T03:38:56.674Z,68.73
2023-01-10T03:41:32.931Z,68.23
2023-01-10T03:44:38.148Z,67.22
2023-01-10T03:47:09.743Z,67.68
2023-01-10T03:49:39.798Z,67.90
2023-01-10T03:52:11.826Z,68.37
2023-01-10T03:54:39.112Z,67.62
2023-01-10T03:57:07.939Z,67.24
2023-01-10T03:59:35.247Z,66.66
2023-01-10T04:02:02.693Z,69.24
2023-01-10T04:04:30.008Z,70.24
2023-01-10T04:06:57.372Z,69.51
2023-01-10T04:09:24.623Z,69.33
2023-01-10T04:11:51.870Z,69.28
2023-01-10T04:14:19.121Z,69.40
2023-01-10T04:16:46.337Z,68.86
2023-01-10T04:19:13.593Z,68.38
2023-01-10T04:21:41.002Z,68.15
2023-01-10T04:24:08.316Z,68.24
2023-01-10T04:26:35.681Z,66.97
2023-01-10T04:29:03.996Z,67.10
2023-01-10T04:31:31.418Z,67.59
2023-01-10T04:33:58.722Z,69.74
2023-01-10T04:36:26.150Z,67.30
2023-01-10T04:38:53.865Z,67.05
2023-01-10T04:41:21.219Z,67.93
2023-01-10T04:43:49.752Z,70.13
2023-01-10T04:46:17.417Z,69.40
2023-01-10T04:48:44.755Z,66.97
2023-01-10T04:51:12.459Z,67.75
2023-01-10T04:53:39.692Z,68.06
2023-01-10T04:56:08.518Z,69.19
2023-01-10T04:58:37.660Z,68.86
2023-01-10T05:01:13.275Z,69.33
2023-01-10T05:03:41.162Z,69.37
2023-01-10T05:06:08.768Z,69.45
2023-01-10T05:08:36.782Z,68.41
2023-01-10T05:11:04.245Z,69.08
2023-01-10T05:13:31.493Z,67.86
2023-01-10T05:15:59.202Z,73.21
2023-01-10T05:18:27.587Z,69.75
2023-01-10T05:21:06.239Z,70.91
2023-01-10T05:23:33.979Z,72.20
2023-01-10T05:26:10.404Z,71.25
2023-01-10T05:28:38.660Z,71.41
2023-01-10T05:31:10.232Z,71.80
2023-01-10T05:33:37.663Z,73.09
2023-01-10T05:36:06.370Z,72.74
2023-01-10T05:38:34.273Z,72.41
2023-01-10T05:41:01.785Z,73.95
2023-01-10T05:43:29.529Z,76.00
2023-01-10T05:45:56.859Z,74.46
2023-01-10T05:48:24.311Z,74.51
2023-01-10T05:50:52.183Z,74.58
2023-01-10T05:53:20.442Z,74.77
2023-01-10T05:55:58.142Z,77.82
2023-01-10T05:58:25.445Z,74.11
2023-01-10T06:00:53.595Z,75.13
2023-01-10T06:03:21.035Z,77.94
2023-01-10T06:05:49.003Z,75.28
2023-01-10T06:08:16.891Z,75.39
2023-01-10T06:10:44.479Z,75.74
2023-01-10T06:13:13.399Z,75.48
2023-01-10T06:15:40.809Z,75.00
2023-01-10T06:18:11.175Z,73.98
2023-01-10T06:20:40.601Z,74.52
2023-01-10T06:23:08.010Z,74.97
2023-01-10T06:25:40.218Z,74.82
2023-01-10T06:28:08.985Z,75.88
2023-01-10T06:30:36.656Z,72.47
2023-01-10T06:33:08.700Z,73.35
2023-01-10T06:35:36.400Z,73.65
2023-01-10T06:38:03.829Z,74.48
2023-01-10T06:40:31.272Z,75.46
2023-01-10T06:42:59.266Z,75.64
2023-01-10T06:45:26.670Z,76.40
2023-01-10T06:47:53.965Z,76.17
2023-01-10T06:50:21.664Z,77.83
2023-01-10T06:53:07.141Z,75.81
2023-01-10T06:55:34.486Z,75.63
2023-01-10T06:58:03.465Z,77.70
2023-01-10T07:00:31.879Z,78.02
2023-01-10T07:03:00.373Z,77.13
2023-01-10T07:05:29.129Z,76.65
2023-01-10T07:07:57.967Z,76.54
2023-01-10T07:10:25.209Z,76.21
2023-01-10T07:12:55.300Z,77.54
2023-01-10T07:15:22.785Z,76.96
2023-01-10T07:17:50.021Z,77.45
2023-01-10T07:20:17.529Z,77.78
2023-01-10T07:22:45.037Z,77.62
2023-01-10T07:25:12.531Z,79.50
2023-01-10T07:27:43.322Z,77.94
2023-01-10T07:30:11.259Z,76.56
2023-01-10T07:32:45.982Z,76.56
2023-01-10T07:35:13.296Z,77.25
2023-01-10T07:37:40.622Z,77.95
2023-01-10T07:40:08.626Z,77.76
2023-01-10T07:42:36.326Z,76.15
2023-01-10T07:45:03.796Z,75.26
2023-01-10T07:47:31.179Z,76.83
2023-01-10T07:49:58.522Z,74.35
2023-01-10T07:52:25.869Z,74.98
2023-01-10T07:54:53.347Z,75.61
2023-01-10T07:57:20.558Z,74.82
2023-01-10T07:59:47.916Z,75.29
2023-01-10T08:02:15.414Z,74.48
2023-01-10T08:04:42.839Z,73.99
2023-01-10T08:07:10.036Z,74.52
2023-01-10T08:09:37.691Z,74.22
2023-01-10T08:12:05.156Z,74.69
2023-01-10T08:14:32.454Z,72.46
2023-01-10T08:17:00.850Z,73.19
2023-01-10T08:19:28.152Z,73.01
2023-01-10T08:21:56.194Z,72.96
2023-01-10T08:24:23.433Z,72.23
2023-01-10T08:26:51.090Z,73.04
2023-01-10T08:29:18.420Z,74.16
2023-01-10T08:31:45.820Z,73.56
2023-01-10T08:34:13.794Z,72.89
2023-01-10T08:36:41.178Z,73.72
2023-01-10T08:39:08.527Z,74.82
2023-01-10T08:41:35.870Z,74.25
2023-01-10T08:44:03.278Z,75.20
2023-01-10T08:46:30.667Z,73.68
2023-01-10T08:48:58.027Z,73.21
2023-01-10T08:51:25.270Z,73.46
2023-01-10T08:53:53.111Z,73.73
2023-01-10T08:56:20.389Z,72.99
2023-01-10T08:58:47.614Z,75.66
2023-01-10T09:01:14.988Z,75.88
2023-01-10T09:03:42.359Z,76.40
2023-01-10T09:06:10.196Z,76.56
2023-01-10T09:08:38.060Z,75.50
2023-01-10T09:11:06.090Z,76.28
2023-01-10T09:13:34.144Z,77.07
2023-01-10T09:16:01.562Z,77.89
2023-01-10T09:18:29.034Z,78.05
2023-01-10T09:20:56.550Z,76.31
2023-01-10T09:23:24.031Z,76.08
2023-01-10T09:25:53.926Z,77.80
2023-01-10T09:28:22.300Z,76.82
2023-01-10T09:30:49.862Z,79.66
2023-01-10T09:33:17.293Z,77.46
2023-01-10T09:35:45.054Z,78.87
2023-01-10T09:38:17.476Z,77.58
2023-01-10T09:41:00.296Z,78.74
2023-01-10T09:43:46.433Z,78.54
2023-01-10T09:46:26.778Z,79.68
2023-01-10T09:49:12.852Z,80.24
2023-01-10T09:51:51.587Z,80.94
2023-01-10T09:54:36.721Z,81.07
2023-01-10T09:57:04.425Z,81.84
2023-01-10T09:59:43.077Z,81.46
2023-01-10T10:02:39.589Z,80.59
2023-01-10T10:05:23.807Z,79.27
2023-01-10T10:07:59.992Z,80.63
2023-01-10T10:10:35.210Z,78.13
2023-01-10T10:13:27.394Z,78.68
2023-01-10T10:16:02.601Z,78.07
2023-01-10T10:18:43.064Z,80.69
2023-01-10T10:21:30.579Z,79.18
2023-01-10T10:24:23.647Z,78.80
2023-01-10T10:27:11.211Z,79.06
2023-01-10T10:30:05.566Z,80.66
2023-01-10T10:32:51.189Z,79.87
2023-01-10T10:35:25.506Z,81.75
2023-01-10T10:37:54.743Z,80.46
2023-01-10T10:40:25.992Z,82.31
2023-01-10T10:42:56.732Z,83.13
2023-01-10T10:45:39.719Z,83.22
2023-01-10T10:48:18.344Z,83.21
2023-01-10T10:50:56.324Z,81.93
2023-01-10T10:53:23.859Z,82.70
2023-01-10T10:55:51.532Z,84.41
2023-01-10T10:58:19.346Z,81.40
2023-01-10T11:00:52.139Z,81.13
2023-01-10T11:03:28.093Z,83.48
2023-01-10T11:05:55.814Z,84.31
2023-01-10T11:08:27.507Z,82.71
2023-01-10T11:10:59.699Z,83.45
2023-01-10T11:13:33.407Z,82.84
2023-01-10T11:16:06.152Z,82.74
2023-01-10T11:18:34.043Z,83.08
2023-01-10T11:21:13.435Z,82.17
2023-01-10T11:23:40.675Z,82.38
2023-01-10T11:26:25.294Z,82.97
2023-01-10T11:29:03.586Z,82.25
2023-01-10T11:31:32.211Z,82.88
2023-01-10T11:34:01.354Z,82.56
2023-01-10T11:36:28.619Z,82.46
2023-01-10T11:39:04.780Z,82.93
2023-01-10T11:41:34.541Z,80.86
2023-01-10T11:44:24.686Z,80.35
2023-01-10T11:46:57.319Z,80.09
2023-01-10T11:49:41.444Z,80.54
2023-01-10T11:52:35.046Z,82.53
2023-01-10T11:55:02.809Z,82.31
2023-01-10T11:57:32.027Z,81.87
2023-01-10T12:00:02.893Z,81.69
2023-01-10T12:02:44.248Z,81.88
2023-01-10T12:05:20.448Z,81.19
2023-01-10T12:07:58.938Z,80.96
2023-01-10T12:10:28.509Z,82.05
2023-01-10T12:13:00.992Z,80.46
2023-01-10T12:15:30.421Z,80.08
2023-01-10T12:18:03.100Z,80.07
2023-01-10T12:20:32.920Z,78.88
2023-01-10T12:23:04.088Z,79.92
2023-01-10T12:25:36.312Z,81.44
2023-01-10T12:28:04.252Z,80.99
2023-01-10T12:30:35.117Z,80.99
2023-01-10T12:33:06.130Z,80.60
2023-01-10T12:35:42.613Z,81.37
2023-01-10T12:38:21.472Z,81.59
2023-01-10T12:40:58.864Z,82.42
2023-01-10T12:44:02.856Z,83.14
2023-01-10T12:47:05.332Z,83.53
2023-01-10T12:49:52.196Z,83.56
2023-01-10T12:52:45.691Z,85.29
2023-01-10T12:55:19.265Z,84.78
2023-01-10T12:57:54.088Z,84.12
2023-01-10T13:00:26.807Z,83.59
2023-01-10T13:02:56.960Z,81.13
2023-01-10T13:05:27.365Z,79.69
2023-01-10T13:08:00.583Z,80.19
2023-01-10T13:10:30.109Z,80.45
2023-01-10T13:13:04.680Z,79.88
2023-01-10T13:15:36.124Z,81.44
2023-01-10T13:18:29.137Z,80.26
2023-01-10T13:21:09.042Z,80.62
2023-01-10T13:23:46.675Z,82.52
2023-01-10T13:26:14.019Z,80.66
2023-01-10T13:28:58.905Z,81.70
2023-01-10T13:31:32.163Z,80.92
2023-01-10T13:34:07.568Z,80.93
2023-01-10T13:36:40.773Z,81.50
2023-01-10T13:39:31.447Z,81.41
2023-01-10T13:42:17.476Z,81.22
2023-01-10T13:45:10.112Z,81.56
2023-01-10T13:47:40.565Z,81.37
2023-01-10T13:50:23.520Z,81.38
2023-01-10T13:53:14.939Z,80.74
2023-01-10T13:55:53.601Z,80.90
2023-01-10T13:58:42.676Z,82.70
2023-01-10T14:01:51.794Z,84.31
2023-01-10T14:04:22.329Z,83.57
2023-01-10T14:07:01.377Z,82.20
2023-01-10T14:09:33.833Z,81.24
2023-01-10T14:12:04.038Z,80.23
2023-01-10T14:14:32.984Z,80.12
2023-01-10T14:17:15.797Z,79.42
2023-01-10T14:19:45.726Z,79.85
2023-01-10T14:22:34.249Z,80.09
2023-01-10T14:25:05.119Z,81.23
2023-01-10T14:27:46.832Z,81.54
2023-01-10T14:30:21.391Z,81.60
2023-01-10T14:32:51.260Z,80.94
2023-01-10T14:35:22.031Z,80.34
2023-01-10T14:37:57.847Z,80.20
2023-01-10T14:40:43.435Z,80.35
2023-01-10T14:43:19.585Z,79.66
2023-01-10T14:45:51.119Z,79.47
2023-01-10T14:48:42.273Z,79.81
2023-01-10T14:51:21.392Z,80.17
2023-01-10T14:54:11.215Z,80.37
2023-01-10T14:56:40.763Z,80.84
2023-01-10T14:59:37.033Z,78.56
2023-01-10T15:02:20.154Z,79.55
2023-01-10T15:05:07.812Z,79.75
2023-01-10T15:07:35.881Z,79.94
2023-01-10T15:10:18.113Z,79.63
2023-01-10T15:12:45.833Z,79.66
2023-01-10T15:15:19.759Z,80.95
2023-01-10T15:17:47.358Z,80.52
2023-01-10T15:20:19.329Z,80.42
2023-01-10T15:22:55.434Z,80.41
2023-01-10T15:25:30.327Z,82.43
2023-01-10T15:27:58.566Z,82.54
2023-01-10T15:30:28.508Z,82.40
2023-01-10T15:32:58.392Z,80.31
2023-01-10T15:35:35.248Z,81.40
2023-01-10T15:38:07.128Z,81.76
2023-01-10T15:40:37.268Z,81.68
2023-01-10T15:43:10.497Z,81.26
2023-01-10T15:45:39.898Z,80.81
2023-01-10T15:48:31.855Z,80.85
2023-01-10T15:51:03.726Z,81.02
2023-01-10T15:54:04.079Z,80.49
2023-01-10T15:56:34.687Z,81.56
2023-01-10T15:59:03.266Z,81.59
2023-01-10T16:01:32.152Z,82.29
2023-01-10T16:04:02.059Z,81.75
2023-01-10T16:06:31.386Z,81.57
2023-01-10T16:09:04.279Z,82.19
2023-01-10T16:11:55.079Z,82.84
2023-01-10T16:14:22.648Z,82.01
2023-01-10T16:16:50.006Z,82.43
2023-01-10T16:19:17.320Z,82.54
2023-01-10T16:21:47.376Z,82.28
2023-01-10T16:24:21.522Z,83.74
2023-01-10T16:26:49.987Z,82.59
2023-01-10T16:29:20.481Z,82.95
2023-01-10T16:31:48.362Z,83.96
2023-01-10T16:34:15.706Z,83.86
2023-01-10T16:36:43.474Z,83.41
2023-01-10T16:39:21.939Z,84.04
2023-01-10T16:42:07.603Z,83.67
2023-01-10T16:44:34.863Z,85.41
2023-01-10T16:47:04.373Z,84.06
2023-01-10T16:49:33.948Z,83.93
2023-01-10T16:52:01.224Z,86.22
2023-01-10T16:54:28.595Z,84.96
2023-01-10T16:56:55.980Z,83.86
2023-01-10T16:59:23.359Z,83.66
2023-01-10T17:01:55.881Z,84.86
2023-01-10T17:04:27.397Z,85.19
2023-01-10T17:06:56.664Z,86.94
2023-01-10T17:09:29.164Z,86.85
2023-01-10T17:12:12.851Z,86.16
2023-01-10T17:14:40.137Z,85.54
2023-01-10T17:17:07.445Z,84.70
2023-01-10T17:19:34.719Z,84.96
2023-01-10T17:22:01.982Z,84.26
2023-01-10T17:24:30.115Z,84.28
2023-01-10T17:26:57.441Z,83.64
2023-01-10T17:29:24.888Z,84.26
2023-01-10T17:31:52.365Z,85.43
2023-01-10T17:34:20.228Z,85.08
2023-01-10T17:36:47.577Z,85.61
2023-01-10T17:39:15.067Z,84.86
2023-01-10T17:41:42.689Z,86.04
2023-01-10T17:44:10.259Z,86.42
2023-01-10T17:46:37.517Z,86.90
2023-01-10T17:49:04.805Z,87.60
2023-01-10T17:51:32.128Z,86.94
2023-01-10T17:53:59.803Z,87.98
2023-01-10T17:56:27.129Z,87.71
2023-01-10T17:58:54.484Z,88.79
2023-01-10T18:01:25.359Z,87.92
2023-01-10T18:03:53.251Z,87.25
2023-01-10T18:06:25.173Z,86.03
2023-01-10T18:08:53.636Z,85.98
2023-01-10T18:11:22.848Z,86.41
2023-01-10T18:13:50.200Z,85.98
2023-01-10T18:16:17.601Z,85.24
2023-01-10T18:18:44.949Z,87.15
2023-01-10T18:21:13.938Z,87.19
2023-01-10T18:23:41.441Z,87.32
2023-01-10T18:26:10.590Z,86.87
2023-01-10T18:28:43.295Z,87.01
2023-01-10T18:31:16.211Z,85.99
2023-01-10T18:33:44.978Z,85.41
2023-01-10T18:36:17.691Z,85.54
2023-01-10T18:38:46.133Z,86.22
2023-01-10T18:41:14.435Z,86.19
2023-01-10T18:43:41.823Z,85.20
2023-01-10T18:46:21.103Z,85.16
2023-01-10T18:48:51.303Z,85.66
2023-01-10T18:51:19.220Z,85.85
2023-01-10T18:53:47.684Z,86.43
2023-01-10T18:56:16.155Z,86.55
2023-01-10T18:58:44.063Z,85.73
2023-01-10T19:01:14.257Z,85.91
2023-01-10T19:03:42.288Z,84.73
2023-01-10T19:06:12.583Z,84.97
2023-01-10T19:08:40.139Z,84.84
2023-01-10T19:11:16.420Z,85.19
2023-01-10T19:13:45.985Z,86.25
2023-01-10T19:16:17.473Z,85.35
2023-01-10T19:18:49.370Z,85.51
2023-01-10T19:21:16.710Z,85.50
2023-01-10T19:23:45.400Z,86.10
2023-01-10T19:26:13.240Z,84.97
2023-01-10T19:28:41.470Z,85.37
2023-01-10T19:31:09.310Z,85.60
2023-01-10T19:33:40.778Z,84.60
2023-01-10T19:36:08.551Z,84.96
2023-01-10T19:38:36.406Z,85.59
2023-01-10T19:41:04.199Z,85.64
2023-01-10T19:43:32.240Z,85.62
2023-01-10T19:46:00.868Z,85.49
2023-01-10T19:48:28.132Z,86.01
2023-01-10T19:50:55.366Z,85.69
2023-01-10T19:53:27.109Z,84.38
2023-01-10T19:56:04.374Z,82.46
2023-01-10T19:58:32.954Z,84.11
2023-01-10T20:01:15.226Z,84.22
2023-01-10T20:03:43.369Z,84.03
2023-01-10T20:06:13.979Z,82.41
2023-01-10T20:08:41.905Z,82.45
2023-01-10T20:11:10.035Z,84.28
2023-01-10T20:13:44.408Z,83.93
2023-01-10T20:16:16.953Z,84.45
2023-01-10T20:18:44.932Z,84.38
2023-01-10T20:21:14.108Z,84.21
2023-01-10T20:23:42.127Z,84.63
2023-01-10T20:26:15.041Z,83.26
2023-01-10T20:28:43.112Z,84.86
2023-01-10T20:31:13.664Z,85.74
2023-01-10T20:33:41.048Z,86.64
2023-01-10T20:36:11.831Z,86.01
2023-01-10T20:38:39.335Z,86.14
2023-01-10T20:41:24.169Z,84.90
2023-01-10T20:43:52.398Z,84.79
2023-01-10T20:46:25.140Z,85.21
2023-01-10T20:48:53.709Z,84.74
2023-01-10T20:51:27.223Z,85.33
2023-01-10T20:53:54.935Z,85.59
2023-01-10T20:56:24.751Z,84.06
2023-01-10T20:58:52.626Z,87.68
2023-01-10T21:01:33.204Z,85.80
2023-01-10T21:04:02.022Z,86.25
2023-01-10T21:06:29.473Z,86.59
2023-01-10T21:08:56.751Z,84.52
2023-01-10T21:11:24.088Z,83.88
2023-01-10T21:13:51.355Z,83.62
2023-01-10T21:16:21.938Z,84.90
2023-01-10T21:18:50.656Z,82.79
2023-01-10T21:21:22.421Z,83.23
2023-01-10T21:23:49.746Z,85.16
2023-01-10T21:26:17.083Z,85.25
2023-01-10T21:28:47.260Z,84.74
2023-01-10T21:31:15.718Z,84.01
2023-01-10T21:33:43.416Z,83.82
2023-01-10T21:36:12.763Z,83.34
2023-01-10T21:38:40.909Z,84.17
2023-01-10T21:41:11.856Z,84.36
2023-01-10T21:43:44.130Z,83.70
2023-01-10T21:46:11.914Z,84.52
2023-01-10T21:48:39.714Z,83.76
2023-01-10T21:51:07.072Z,84.29
2023-01-10T21:53:34.471Z,83.83
2023-01-10T21:56:01.853Z,83.92
2023-01-10T21:58:29.215Z,83.99
2023-01-10T22:00:58.861Z,83.31
2023-01-10T22:03:26.651Z,84.08
2023-01-10T22:05:54.481Z,83.79
2023-01-10T22:08:21.821Z,85.34
2023-01-10T22:10:49.118Z,85.57
2023-01-10T22:13:16.400Z,85.32
2023-01-10T22:15:44.385Z,84.36
2023-01-10T22:18:11.688Z,84.35
2023-01-10T22:20:38.981Z,84.39
2023-01-10T22:23:06.307Z,82.61
2023-01-10T22:25:33.508Z,82.37
2023-01-10T22:28:00.827Z,82.99
2023-01-10T22:30:28.051Z,81.99
2023-01-10T22:32:56.803Z,82.31
2023-01-10T22:35:26.221Z,82.23
2023-01-10T22:37:55.647Z,82.00
2023-01-10T22:40:23.498Z,82.14
2023-01-10T22:42:52.532Z,81.69
2023-01-10T22:45:19.873Z,83.04
2023-01-10T22:47:50.481Z,82.28
2023-01-10T22:50:18.430Z,81.09
2023-01-10T22:52:49.399Z,82.05
2023-01-10T22:55:17.729Z,82.31
2023-01-10T22:57:48.078Z,81.70
2023-01-10T23:00:15.689Z,81.27
2023-01-10T23:02:43.121Z,80.30
2023-01-10T23:05:10.393Z,80.22
2023-01-10T23:07:37.735Z,80.74
2023-01-10T23:10:07.094Z,82.22
2023-01-10T23:12:37.329Z,82.48
2023-01-10T23:15:04.970Z,81.35
2023-01-10T23:17:32.332Z,81.67
2023-01-10T23:19:59.539Z,81.55
2023-01-10T23:22:26.715Z,81.04
2023-01-10T23:24:53.936Z,80.39
2023-01-10T23:27:21.177Z,80.46
2023-01-10T23:29:48.453Z,81.26
2023-01-10T23:32:15.638Z,82.70
2023-01-10T23:34:42.838Z,83.66
2023-01-10T23:37:10.069Z,82.77
2023-01-10T23:39:37.310Z,82.29
2023-01-10T23:42:04.566Z,82.15
2023-01-10T23:44:31.913Z,82.54
2023-01-10T23:46:59.224Z,82.50
2023-01-10T23:49:26.561Z,81.32
2023-01-10T23:51:53.866Z,81.42
2023-01-10T23:54:21.351Z,80.33
2023-01-10T23:56:51.663Z,80.84
2023-01-10T23:59:19.664Z,82.03
